Time;durP1;ratioP1;P1;durP2;ratioP2;P2;SDS_P1;SDS_P2;PMS_P1;PMS_P2;Temp;Humidity;BMP_temperature;BMP_pressure;BME280_temperature;BME280_humidity;BME280_pressure;Samples;Min_cycle;Max_cycle;Signal;HPM_P1;HPM_P2
2023/02/08 00:01:11;;;;;;;5.95;1.63;;;26.80;45.60;;;;;;5012440;28;20197;-49
2023/02/08 00:03:42;;;;;;;5.30;1.67;;;26.90;45.60;;;;;;5015416;28;20196;-48
2023/02/08 00:06:13;;;;;;;2.92;1.23;;;26.80;45.50;;;;;;5015963;28;20196;-51
2023/02/08 00:08:46;;;;;;;4.13;1.48;;;26.90;45.60;;;;;;5015418;28;20232;-49
2023/02/08 00:11:17;;;;;;;5.22;1.60;;;26.90;45.60;;;;;;5015830;28;20373;-48
2023/02/08 00:13:47;;;;;;;4.15;1.70;;;26.90;45.60;;;;;;5015549;28;20669;-48
2023/02/08 00:16:19;;;;;;;5.18;2.10;;;26.90;45.70;;;;;;5015305;28;20196;-51
2023/02/08 00:18:49;;;;;;;6.00;1.70;;;26.90;45.60;;;;;;5015474;28;20267;-49
2023/02/08 00:21:21;;;;;;;3.60;1.45;;;26.90;45.60;;;;;;5015752;28;20200;-51
2023/02/08 00:23:53;;;;;;;3.58;1.55;;;27.00;45.60;;;;;;5015477;28;20201;-49
2023/02/08 00:26:24;;;;;;;5.82;1.63;;;27.00;45.60;;;;;;5015032;28;20204;-48
2023/02/08 00:28:55;;;;;;;4.28;1.55;;;27.00;45.60;;;;;;5014773;28;20212;-49
2023/02/08 00:31:26;;;;;;;5.50;1.70;;;27.00;45.50;;;;;;5014623;28;20209;-50
2023/02/08 00:33:56;;;;;;;2.78;1.20;;;27.00;45.50;;;;;;5015470;28;20227;-49
2023/02/08 00:36:27;;;;;;;4.57;1.63;;;27.00;45.50;;;;;;5014942;28;20197;-48
2023/02/08 00:38:59;;;;;;;5.35;1.60;;;27.10;45.40;;;;;;5014969;28;20263;-52
2023/02/08 00:41:30;;;;;;;6.55;1.60;;;27.10;45.40;;;;;;5015007;28;20201;-49
2023/02/08 00:44:01;;;;;;;3.65;1.40;;;27.10;45.30;;;;;;5014920;28;20212;-50
2023/02/08 00:46:32;;;;;;;3.30;1.40;;;27.10;45.30;;;;;;5014965;28;20208;-50
2023/02/08 00:49:02;;;;;;;3.72;1.48;;;27.10;45.30;;;;;;5014843;28;20217;-50
2023/02/08 00:51:33;;;;;;;4.57;1.70;;;27.10;45.30;;;;;;5014581;28;20204;-50
2023/02/08 00:54:06;;;;;;;4.75;1.40;;;27.10;45.30;;;;;;5011423;28;20220;-49
2023/02/08 00:56:36;;;;;;;3.67;1.48;;;27.20;45.30;;;;;;5014761;28;20209;-51
2023/02/08 00:59:07;;;;;;;5.32;1.70;;;27.20;45.30;;;;;;5014632;28;20217;-50
2023/02/08 01:01:38;;;;;;;2.50;1.23;;;27.20;45.30;;;;;;5014758;28;20208;-52
2023/02/08 01:04:09;;;;;;;2.67;1.20;;;27.20;45.30;;;;;;5014213;28;20193;-49
2023/02/08 01:06:40;;;;;;;5.13;1.83;;;27.20;45.30;;;;;;5014797;28;20205;-50
2023/02/08 01:09:12;;;;;;;3.20;1.38;;;27.30;45.30;;;;;;4994848;28;20214;-49
2023/02/08 01:11:43;;;;;;;3.15;1.58;;;27.30;45.30;;;;;;4994877;28;20696;-51
2023/02/08 01:14:14;;;;;;;3.38;1.55;;;27.30;45.30;;;;;;4994640;28;20242;-49
2023/02/08 01:16:45;;;;;;;4.10;1.60;;;27.30;45.20;;;;;;4994254;28;20201;-50
2023/02/08 01:19:15;;;;;;;4.50;1.63;;;27.40;45.30;;;;;;4995093;28;20217;-50
2023/02/08 01:21:47;;;;;;;2.42;1.25;;;27.40;45.20;;;;;;5010849;28;20665;-49
2023/02/08 01:24:20;;;;;;;5.32;1.67;;;27.40;45.20;;;;;;5013986;28;20450;-49
2023/02/08 01:26:51;;;;;;;5.07;1.60;;;27.40;45.20;;;;;;5013512;28;20205;-49
2023/02/08 01:29:21;;;;;;;3.45;1.23;;;27.50;45.20;;;;;;5013483;28;20221;-49
2023/02/08 01:31:52;;;;;;;3.72;1.55;;;27.40;45.10;;;;;;5013535;28;20224;-50
2023/02/08 01:34:23;;;;;;;2.85;1.58;;;27.50;45.10;;;;;;5014282;28;20227;-49
2023/02/08 01:36:53;;;;;;;3.08;1.40;;;27.50;45.10;;;;;;5014401;28;20203;-49
2023/02/08 01:39:26;;;;;;;3.65;1.38;;;27.50;45.10;;;;;;5013782;28;20221;-48
2023/02/08 01:41:57;;;;;;;4.13;1.52;;;27.50;45.10;;;;;;5013760;28;20208;-48
2023/02/08 01:45:19;;;;;;;6.45;1.40;;;27.50;45.00;;;;;;5014169;28;20211;-48
2023/02/08 01:47:53;;;;;;;5.45;1.55;;;27.50;45.00;;;;;;4933337;29;20199;-51
2023/02/08 01:50:27;;;;;;;2.78;1.42;;;27.60;45.00;;;;;;4933553;29;20711;-52
2023/02/08 01:52:57;;;;;;;4.20;1.30;;;27.60;45.00;;;;;;4978221;28;20587;-53
2023/02/08 01:55:34;;;;;;;4.55;1.67;;;27.60;44.90;;;;;;5013622;28;20220;-53
2023/02/08 01:58:07;;;;;;;3.17;1.20;;;27.60;44.90;;;;;;5013950;28;20204;-50
2023/02/08 02:00:38;;;;;;;3.97;1.38;;;27.60;44.80;;;;;;5013730;28;20209;-53
2023/02/08 02:03:09;;;;;;;3.55;1.23;;;27.70;44.80;;;;;;5013690;28;20201;-53
2023/02/08 02:05:44;;;;;;;4.90;1.50;;;27.70;44.80;;;;;;5013096;28;20201;-52
2023/02/08 02:08:15;;;;;;;3.65;1.48;;;27.70;44.80;;;;;;5013106;28;20653;-50
2023/02/08 02:10:50;;;;;;;3.08;1.30;;;27.70;44.80;;;;;;5013165;28;20197;-51
2023/02/08 02:13:23;;;;;;;4.03;1.48;;;27.80;44.80;;;;;;5013226;28;20193;-52
2023/02/08 02:15:54;;;;;;;2.63;1.20;;;27.80;44.70;;;;;;5013153;28;20235;-53
2023/02/08 02:18:29;;;;;;;4.03;1.20;;;27.80;44.70;;;;;;5013235;28;20232;-52
2023/02/08 02:21:17;;;;;;;4.07;1.42;;;27.80;44.70;;;;;;5013187;28;20672;-52
2023/02/08 02:24:34;;;;;;;4.93;1.63;;;27.80;44.70;;;;;;5012106;28;20212;-48
2023/02/08 02:27:35;;;;;;;2.92;1.38;;;27.90;44.60;;;;;;5012507;28;20204;-49
2023/02/08 02:30:45;;;;;;;3.88;1.50;;;27.90;44.50;;;;;;5012679;28;20584;-50
2023/02/08 02:33:44;;;;;;;3.53;1.60;;;27.90;44.50;;;;;;4974150;28;20200;-49
2023/02/08 02:36:20;;;;;;;3.30;1.30;;;28.00;44.40;;;;;;5006755;28;20231;-53
2023/02/08 02:39:03;;;;;;;3.90;1.50;;;28.00;44.40;;;;;;5012446;28;20224;-50
2023/02/08 02:44:37;;;;;;;3.83;1.50;;;28.00;44.40;;;;;;5012749;28;20200;-51
2023/02/08 02:47:17;;;;;;;3.67;1.40;;;28.10;44.40;;;;;;5012332;28;20204;-50
2023/02/08 02:49:54;;;;;;;2.35;1.40;;;28.10;44.40;;;;;;5011669;28;20217;-50
2023/02/08 02:52:34;;;;;;;3.33;1.48;;;28.10;44.30;;;;;;5010870;28;20565;-54
2023/02/08 02:55:09;;;;;;;3.90;1.15;;;28.10;44.30;;;;;;5012345;28;20766;-49
2023/02/08 02:57:43;;;;;;;2.75;1.30;;;28.20;44.30;;;;;;5012222;28;20192;-48
2023/02/08 03:00:20;;;;;;;3.75;1.35;;;28.20;44.20;;;;;;5012227;28;20224;-52
2023/02/08 03:02:51;;;;;;;3.88;1.40;;;28.20;44.20;;;;;;5012423;28;20197;-49
2023/02/08 03:05:24;;;;;;;2.97;1.40;;;28.20;44.20;;;;;;5012387;28;20278;-49
2023/02/08 03:08:22;;;;;;;3.65;1.25;;;28.30;44.10;;;;;;5012164;28;20200;-49
2023/02/08 03:11:19;;;;;;;3.40;1.30;;;28.30;44.10;;;;;;4980042;28;20197;-49
2023/02/08 03:14:05;;;;;;;3.38;1.13;;;28.30;44.10;;;;;;5012255;28;20197;-49
2023/02/08 03:16:51;;;;;;;3.63;1.05;;;28.30;44.00;;;;;;5011738;28;20400;-50
2023/02/08 03:19:25;;;;;;;2.00;1.30;;;28.40;44.00;;;;;;5011288;28;20219;-49
2023/02/08 03:22:00;;;;;;;2.95;1.00;;;28.40;44.00;;;;;;5011047;28;20199;-51
2023/02/08 03:24:35;;;;;;;3.85;1.20;;;28.50;44.00;;;;;;5012165;28;20203;-49
2023/02/08 03:27:10;;;;;;;2.75;1.15;;;28.50;43.90;;;;;;5012154;28;20204;-50
2023/02/08 03:29:49;;;;;;;4.97;1.60;;;28.50;43.90;;;;;;5011533;28;20212;-51
2023/02/08 03:32:27;;;;;;;2.03;1.23;;;28.60;44.00;;;;;;5012230;28;20197;-52
2023/02/08 03:35:02;;;;;;;4.25;1.55;;;28.60;43.90;;;;;;5011843;28;20635;-50
2023/02/08 03:37:37;;;;;;;3.22;1.38;;;28.60;43.90;;;;;;5011948;28;20207;-49
2023/02/08 03:40:13;;;;;;;2.88;1.17;;;28.70;44.00;;;;;;5011651;28;20723;-49
2023/02/08 03:42:44;;;;;;;1.77;1.00;;;28.70;44.00;;;;;;5011189;28;20197;-48
2023/02/08 03:45:20;;;;;;;4.25;1.33;;;28.80;44.00;;;;;;5011583;28;20242;-49
2023/02/08 03:47:55;;;;;;;2.35;1.05;;;28.80;43.90;;;;;;5011955;28;20200;-48
2023/02/08 03:50:26;;;;;;;3.05;1.02;;;28.80;43.80;;;;;;5012010;28;20608;-48
2023/02/08 03:53:00;;;;;;;2.58;1.17;;;28.80;43.70;;;;;;5011827;28;20796;-48
2023/02/08 03:55:35;;;;;;;3.28;1.23;;;28.90;43.60;;;;;;5011938;28;20228;-49
2023/02/08 03:58:09;;;;;;;1.80;0.80;;;28.90;43.50;;;;;;5011808;28;20471;-48
2023/02/08 04:00:43;;;;;;;2.83;0.90;;;28.90;43.40;;;;;;5011304;28;20196;-50
2023/02/08 04:03:18;;;;;;;2.03;1.00;;;29.00;43.00;;;;;;5011482;28;20201;-51
2023/02/08 04:05:49;;;;;;;1.58;0.75;;;28.90;42.70;;;;;;5011634;28;20211;-50
2023/02/08 04:08:22;;;;;;;2.05;0.80;;;28.90;42.60;;;;;;5011707;28;20576;-50
2023/02/08 04:10:53;;;;;;;2.47;0.90;;;28.90;42.50;;;;;;5011617;28;20197;-49
2023/02/08 04:13:23;;;;;;;2.25;0.82;;;29.00;42.50;;;;;;5011809;28;20196;-48
2023/02/08 04:15:54;;;;;;;2.83;0.80;;;29.00;42.40;;;;;;5011470;28;20228;-49
2023/02/08 04:18:25;;;;;;;1.60;0.70;;;29.00;42.50;;;;;;5011506;28;20225;-50
2023/02/08 04:20:55;;;;;;;3.83;0.88;;;29.00;42.40;;;;;;5010823;28;20197;-50
2023/02/08 04:23:28;;;;;;;2.10;0.70;;;29.00;42.30;;;;;;5010969;28;20193;-48
2023/02/08 04:25:58;;;;;;;1.77;0.98;;;29.00;42.20;;;;;;5011591;28;20205;-49
2023/02/08 04:28:29;;;;;;;1.40;0.70;;;29.00;42.00;;;;;;5012031;28;20223;-49
2023/02/08 04:31:00;;;;;;;1.20;0.80;;;29.00;41.80;;;;;;5011231;28;20654;-51
2023/02/08 04:33:31;;;;;;;1.83;0.70;;;29.00;41.50;;;;;;5011704;28;20220;-49
2023/02/08 04:36:01;;;;;;;2.50;0.73;;;29.10;41.30;;;;;;5010929;28;20700;-49
2023/02/08 04:38:37;;;;;;;1.80;0.80;;;29.10;41.20;;;;;;5011030;28;20221;-50
2023/02/08 04:41:08;;;;;;;1.08;0.60;;;29.10;41.00;;;;;;5011600;28;20204;-53
2023/02/08 04:43:38;;;;;;;1.50;0.80;;;29.10;40.90;;;;;;5011528;28;20201;-49
2023/02/08 04:46:09;;;;;;;2.10;0.80;;;29.20;40.70;;;;;;5007952;28;20208;-53
2023/02/08 04:48:40;;;;;;;1.80;0.60;;;29.20;40.60;;;;;;5014165;28;20759;-49
2023/02/08 04:51:11;;;;;;;1.40;0.82;;;29.20;40.50;;;;;;5014840;28;20203;-51
2023/02/08 04:53:43;;;;;;;2.63;0.68;;;29.20;40.40;;;;;;5014847;28;20203;-49
2023/02/08 04:56:14;;;;;;;1.25;0.77;;;29.20;40.20;;;;;;5014336;28;20232;-53
2023/02/08 04:58:45;;;;;;;1.75;0.70;;;29.30;40.30;;;;;;5014371;28;20224;-50
2023/02/08 05:01:17;;;;;;;1.48;0.60;;;29.30;40.30;;;;;;5014686;28;20239;-51
2023/02/08 05:03:47;;;;;;;1.20;0.57;;;29.30;40.20;;;;;;5014819;28;20719;-50
2023/02/08 05:06:18;;;;;;;1.52;0.50;;;29.30;40.10;;;;;;5014268;28;20205;-50
2023/02/08 05:08:51;;;;;;;1.00;0.50;;;29.30;39.80;;;;;;5014044;28;20225;-52
2023/02/08 05:11:23;;;;;;;1.05;0.40;;;29.30;39.80;;;;;;5011602;28;20199;-52
2023/02/08 05:13:54;;;;;;;1.40;0.65;;;29.30;40.00;;;;;;5014464;28;20571;-51
2023/02/08 05:16:25;;;;;;;3.05;0.50;;;29.40;39.80;;;;;;5014244;28;20720;-50
2023/02/08 05:18:59;;;;;;;1.10;0.65;;;29.40;39.80;;;;;;5014237;28;20228;-48
2023/02/08 05:21:30;;;;;;;1.05;0.55;;;29.40;39.70;;;;;;5014173;28;20199;-48
2023/02/08 05:24:02;;;;;;;2.03;0.65;;;29.40;39.60;;;;;;5014246;28;20197;-50
2023/02/08 05:26:33;;;;;;;1.25;0.57;;;29.40;39.40;;;;;;5013721;28;20211;-51
2023/02/08 05:29:04;;;;;;;1.33;0.60;;;29.40;39.30;;;;;;5013760;28;20639;-50
2023/02/08 05:31:35;;;;;;;1.05;0.50;;;29.40;39.20;;;;;;5014019;28;20197;-49
2023/02/08 05:34:05;;;;;;;0.47;0.30;;;29.40;39.20;;;;;;5013928;28;20561;-52
2023/02/08 05:36:36;;;;;;;1.48;0.63;;;29.40;39.20;;;;;;5014126;28;20252;-51
2023/02/08 05:39:09;;;;;;;0.77;0.47;;;29.40;39.10;;;;;;5013887;28;20217;-49
2023/02/08 05:41:39;;;;;;;1.63;0.60;;;29.40;39.10;;;;;;5014013;28;20231;-53
2023/02/08 05:44:10;;;;;;;0.52;0.30;;;29.50;39.20;;;;;;5013728;28;20201;-50
2023/02/08 05:46:41;;;;;;;0.75;0.40;;;29.50;39.30;;;;;;5013723;28;20189;-51
2023/02/08 05:49:11;;;;;;;0.52;0.38;;;29.40;39.30;;;;;;5013569;28;20697;-49
2023/02/08 05:51:42;;;;;;;1.30;0.40;;;29.40;39.30;;;;;;5012830;28;20675;-49
2023/02/08 05:54:15;;;;;;;0.45;0.40;;;29.40;39.30;;;;;;5013226;28;20200;-50
2023/02/08 05:56:45;;;;;;;0.77;0.50;;;29.40;39.10;;;;;;5012982;28;20596;-49
2023/02/08 05:59:16;;;;;;;0.90;0.30;;;29.40;39.10;;;;;;5012305;28;20588;-53
2023/02/08 06:01:47;;;;;;;0.90;0.40;;;29.40;39.20;;;;;;5013531;28;20197;-52
2023/02/08 06:04:17;;;;;;;0.80;0.35;;;29.50;39.30;;;;;;5013581;28;20661;-48
2023/02/08 06:06:48;;;;;;;1.50;0.40;;;29.40;39.20;;;;;;5013098;28;20201;-49
2023/02/08 06:09:21;;;;;;;0.32;0.30;;;29.40;39.20;;;;;;5013330;28;20239;-48
2023/02/08 06:11:51;;;;;;;1.20;0.38;;;29.40;39.20;;;;;;5013429;28;20484;-49
2023/02/08 06:14:22;;;;;;;1.40;0.57;;;29.40;39.20;;;;;;5013591;28;20537;-49
2023/02/08 06:16:53;;;;;;;0.90;0.30;;;29.40;39.00;;;;;;5013050;28;20229;-49
2023/02/08 06:19:24;;;;;;;0.73;0.30;;;29.50;39.10;;;;;;5013289;28;20216;-50
2023/02/08 06:21:54;;;;;;;0.70;0.30;;;29.50;39.10;;;;;;5013350;28;20216;-48
2023/02/08 06:24:27;;;;;;;1.52;0.50;;;29.40;39.20;;;;;;5013244;28;20200;-51
2023/02/08 06:26:58;;;;;;;0.98;0.30;;;29.50;39.20;;;;;;5012990;28;20209;-53
2023/02/08 06:29:28;;;;;;;0.93;0.43;;;29.50;39.10;;;;;;5012752;28;20299;-48
2023/02/08 06:31:59;;;;;;;0.90;0.50;;;29.40;38.80;;;;;;5012743;28;20204;-53
2023/02/08 06:34:30;;;;;;;1.38;0.60;;;29.40;38.60;;;;;;5013325;28;20545;-50
2023/02/08 06:37:02;;;;;;;0.77;0.40;;;29.40;38.30;;;;;;5012862;28;20247;-51
2023/02/08 06:39:34;;;;;;;1.20;0.50;;;29.40;38.20;;;;;;5012800;28;20221;-48
2023/02/08 06:42:05;;;;;;;1.38;0.50;;;29.40;38.10;;;;;;5012830;28;20201;-51
2023/02/08 06:44:36;;;;;;;1.13;0.50;;;29.40;38.00;;;;;;5012846;28;20197;-50
2023/02/08 06:47:06;;;;;;;1.33;0.40;;;29.30;37.90;;;;;;5012478;28;20669;-48
2023/02/08 06:49:37;;;;;;;1.27;0.45;;;29.30;38.10;;;;;;5009472;28;20224;-51
2023/02/08 06:52:08;;;;;;;0.50;0.35;;;29.30;38.20;;;;;;5012551;28;20216;-51
2023/02/08 06:54:40;;;;;;;0.68;0.30;;;29.30;38.20;;;;;;5012502;28;20196;-50
2023/02/08 06:57:11;;;;;;;0.57;0.32;;;29.30;38.20;;;;;;5012157;28;20236;-51
2023/02/08 06:59:42;;;;;;;0.90;0.40;;;29.30;38.20;;;;;;5012200;28;20705;-48
2023/02/08 07:02:16;;;;;;;0.80;0.47;;;29.40;38.10;;;;;;5012292;28;20204;-50
2023/02/08 07:04:46;;;;;;;0.68;0.38;;;29.30;38.20;;;;;;5012386;28;20203;-50
2023/02/08 07:07:18;;;;;;;0.63;0.40;;;29.30;38.40;;;;;;5010665;28;20189;-51
2023/02/08 07:09:51;;;;;;;0.80;0.45;;;29.30;38.30;;;;;;5011656;28;20213;-48
2023/02/08 07:12:21;;;;;;;0.75;0.40;;;29.30;38.20;;;;;;5012251;28;20588;-50
2023/02/08 07:14:52;;;;;;;0.60;0.40;;;29.30;37.90;;;;;;5012233;28;20203;-47
2023/02/08 07:17:23;;;;;;;1.02;0.52;;;29.30;37.70;;;;;;5011950;28;20708;-49
2023/02/08 07:19:54;;;;;;;2.30;0.50;;;29.30;37.40;;;;;;5012051;28;20224;-49
2023/02/08 07:22:24;;;;;;;1.30;0.50;;;29.30;37.30;;;;;;5012059;28;20645;-47
2023/02/08 07:24:57;;;;;;;1.45;0.40;;;29.30;37.10;;;;;;5012046;28;20247;-52
2023/02/08 07:27:30;;;;;;;0.73;0.35;;;29.20;36.90;;;;;;5011569;28;20681;-47
2023/02/08 07:30:00;;;;;;;1.55;0.70;;;29.20;36.90;;;;;;5011633;28;20271;-47
2023/02/08 07:32:35;;;;;;;1.55;0.60;;;29.20;36.90;;;;;;5011624;28;20200;-47
2023/02/08 07:35:06;;;;;;;0.65;0.30;;;29.20;37.00;;;;;;5011398;28;20551;-50
2023/02/08 07:37:37;;;;;;;1.00;0.50;;;29.10;37.00;;;;;;5011332;28;20232;-50
2023/02/08 07:40:10;;;;;;;0.50;0.30;;;29.10;36.90;;;;;;5011173;28;20217;-51
2023/02/08 07:42:41;;;;;;;0.63;0.38;;;29.10;36.90;;;;;;5012164;28;20199;-50
2023/02/08 07:45:12;;;;;;;0.52;0.30;;;29.00;36.80;;;;;;5011885;28;20540;-51
2023/02/08 07:47:42;;;;;;;0.77;0.38;;;29.00;36.90;;;;;;5011179;28;20298;-49
2023/02/08 07:50:13;;;;;;;0.80;0.40;;;29.00;36.90;;;;;;5011814;28;20221;-49
2023/02/08 07:52:45;;;;;;;0.77;0.43;;;29.00;36.90;;;;;;5011801;28;20200;-49
2023/02/08 07:55:19;;;;;;;1.52;0.50;;;29.00;36.80;;;;;;5011812;28;20413;-51
2023/02/08 07:57:50;;;;;;;0.90;0.40;;;28.90;36.70;;;;;;5011773;28;20278;-49
2023/02/08 08:00:22;;;;;;;0.43;0.30;;;28.90;36.70;;;;;;5011554;28;20225;-48
2023/02/08 08:02:52;;;;;;;1.38;0.35;;;28.90;36.70;;;;;;5011542;28;20201;-50
2023/02/08 08:05:23;;;;;;;0.70;0.40;;;28.80;36.70;;;;;;5011808;28;20192;-48
2023/02/08 08:07:54;;;;;;;0.70;0.38;;;28.80;36.70;;;;;;5011579;28;20204;-49
2023/02/08 08:10:26;;;;;;;0.77;0.43;;;28.80;36.70;;;;;;5011536;28;20220;-47
2023/02/08 08:12:57;;;;;;;1.02;0.50;;;28.80;36.70;;;;;;5011711;28;20197;-48
2023/02/08 08:15:28;;;;;;;1.27;0.52;;;28.70;36.70;;;;;;5011212;28;20208;-52
2023/02/08 08:17:59;;;;;;;0.70;0.30;;;28.70;36.80;;;;;;5011460;28;20560;-51
2023/02/08 08:20:30;;;;;;;0.68;0.38;;;28.70;36.80;;;;;;5012043;28;20216;-47
2023/02/08 08:23:00;;;;;;;1.35;0.40;;;28.70;36.90;;;;;;5013815;28;20203;-51
2023/02/08 08:25:33;;;;;;;1.45;0.52;;;28.60;36.80;;;;;;5015173;28;20227;-51
2023/02/08 08:28:04;;;;;;;0.55;0.32;;;28.60;36.90;;;;;;5015253;28;20204;-48
2023/02/08 08:30:34;;;;;;;1.05;0.50;;;28.60;37.00;;;;;;5015231;28;20192;-48
2023/02/08 08:33:06;;;;;;;0.50;0.30;;;28.60;37.00;;;;;;5015479;28;20664;-50
2023/02/08 08:35:36;;;;;;;0.55;0.40;;;28.60;37.00;;;;;;5014862;28;20196;-51
2023/02/08 08:38:07;;;;;;;1.42;0.40;;;28.60;37.00;;;;;;5014169;28;20232;-48
2023/02/08 08:40:39;;;;;;;1.95;0.60;;;28.50;36.90;;;;;;5014908;28;20201;-52
2023/02/08 08:43:10;;;;;;;0.95;0.43;;;28.50;36.90;;;;;;5012044;28;20212;-47
2023/02/08 08:45:41;;;;;;;1.60;0.60;;;28.50;36.90;;;;;;5015149;28;20196;-47
2023/02/08 08:48:11;;;;;;;0.82;0.40;;;28.40;36.80;;;;;;5014757;28;20197;-48
2023/02/08 08:50:42;;;;;;;0.93;0.40;;;28.40;36.80;;;;;;5014925;28;20208;-48
2023/02/08 08:53:13;;;;;;;0.82;0.52;;;28.40;37.50;;;;;;5015110;28;20201;-47
2023/02/08 08:55:45;;;;;;;1.08;0.50;;;28.30;36.80;;;;;;5015027;28;20205;-51
2023/02/08 08:58:16;;;;;;;1.08;0.45;;;28.30;36.80;;;;;;5015181;28;20232;-48
2023/02/08 09:00:47;;;;;;;0.70;0.38;;;28.30;36.90;;;;;;5014791;28;20204;-49
2023/02/08 09:03:17;;;;;;;1.52;0.43;;;28.20;36.90;;;;;;5014704;28;20665;-51
2023/02/08 09:05:49;;;;;;;0.63;0.40;;;28.20;37.00;;;;;;5014959;28;20236;-50
2023/02/08 09:08:19;;;;;;;1.40;0.50;;;28.20;37.00;;;;;;5014269;28;20204;-47
2023/02/08 09:10:52;;;;;;;0.45;0.30;;;28.20;37.10;;;;;;5013487;28;20739;-47
2023/02/08 09:13:23;;;;;;;1.52;0.60;;;28.10;37.00;;;;;;5012724;28;20197;-50
2023/02/08 09:15:53;;;;;;;1.13;0.40;;;28.10;37.10;;;;;;5014513;28;20653;-50
2023/02/08 09:18:24;;;;;;;1.52;0.65;;;28.10;37.10;;;;;;5014376;28;20232;-48
2023/02/08 09:20:55;;;;;;;0.73;0.45;;;28.10;37.10;;;;;;5014552;28;20284;-46
2023/02/08 09:23:25;;;;;;;0.80;0.55;;;28.00;37.10;;;;;;5014483;28;20574;-51
2023/02/08 09:25:58;;;;;;;0.60;0.43;;;28.00;36.90;;;;;;5014319;28;20227;-47
2023/02/08 09:28:29;;;;;;;0.43;0.30;;;28.00;36.90;;;;;;5014279;28;20229;-49
2023/02/08 09:31:00;;;;;;;0.50;0.30;;;28.00;36.90;;;;;;5014114;28;20205;-49
2023/02/08 09:33:31;;;;;;;1.55;0.50;;;27.90;36.90;;;;;;5014536;28;20243;-50
2023/02/08 09:36:01;;;;;;;1.20;0.50;;;27.80;36.80;;;;;;5013255;28;20200;-48
2023/02/08 09:38:32;;;;;;;1.05;0.60;;;27.80;36.90;;;;;;5013644;28;20236;-47
2023/02/08 09:41:16;;;;;;;1.17;0.55;;;27.80;37.00;;;;;;5013625;28;20197;-48
2023/02/08 09:43:54;;;;;;;0.75;0.40;;;27.80;37.00;;;;;;5013681;28;20567;-50
2023/02/08 09:46:28;;;;;;;1.00;0.50;;;27.70;37.10;;;;;;5013408;28;20546;-51
2023/02/08 09:49:01;;;;;;;1.33;0.47;;;27.70;37.10;;;;;;5013057;28;20213;-50
2023/02/08 09:51:35;;;;;;;1.45;0.30;;;27.70;37.10;;;;;;5013664;28;20673;-47
2023/02/08 09:54:09;;;;;;;0.75;0.50;;;27.60;37.00;;;;;;5013705;28;20656;-50
2023/02/08 09:56:44;;;;;;;0.60;0.30;;;27.60;37.10;;;;;;5013693;28;20200;-49
2023/02/08 09:59:18;;;;;;;0.68;0.40;;;27.60;37.10;;;;;;5013356;28;20216;-47
2023/02/08 10:01:49;;;;;;;1.48;0.32;;;27.60;37.10;;;;;;5012942;28;20197;-52
2023/02/08 10:04:29;;;;;;;0.47;0.40;;;27.50;37.10;;;;;;5013417;28;20200;-51
2023/02/08 10:07:00;;;;;;;0.90;0.60;;;27.50;37.20;;;;;;5013451;28;20204;-51
2023/02/08 10:09:31;;;;;;;0.38;0.20;;;27.50;37.20;;;;;;5013314;28;20221;-51
2023/02/08 10:12:16;;;;;;;1.30;0.50;;;27.50;37.20;;;;;;5013223;28;20197;-50
2023/02/08 10:15:04;;;;;;;0.45;0.20;;;27.40;37.20;;;;;;5013714;28;20201;-51
2023/02/08 10:17:59;;;;;;;0.43;0.30;;;27.40;37.20;;;;;;5012595;28;20816;-50
2023/02/08 10:20:50;;;;;;;0.93;0.30;;;27.40;37.30;;;;;;5013225;28;20217;-52
2023/02/08 10:23:38;;;;;;;0.77;0.40;;;27.30;37.40;;;;;;5010592;28;20208;-51
2023/02/08 10:26:25;;;;;;;1.52;0.47;;;27.30;37.40;;;;;;5013249;28;20196;-51
2023/02/08 10:29:22;;;;;;;1.20;0.40;;;27.30;37.50;;;;;;5013268;28;20727;-53
2023/02/08 10:32:07;;;;;;;0.77;0.40;;;27.20;37.50;;;;;;4997396;28;20194;-47
2023/02/08 10:34:45;;;;;;;1.00;0.50;;;27.20;37.50;;;;;;5013151;28;20208;-52
2023/02/08 10:37:21;;;;;;;0.80;0.47;;;27.20;37.60;;;;;;5013178;28;20221;-51
2023/02/08 10:39:53;;;;;;;0.80;0.40;;;27.20;37.60;;;;;;5010146;28;20217;-53
2023/02/08 10:42:27;;;;;;;1.25;0.60;;;27.10;37.60;;;;;;4993060;28;20205;-48
2023/02/08 10:45:09;;;;;;;1.50;0.52;;;27.10;37.70;;;;;;4992460;28;20209;-53
2023/02/08 10:47:48;;;;;;;1.30;0.60;;;27.10;37.80;;;;;;4993172;28;20204;-50
2023/02/08 10:50:27;;;;;;;1.35;0.50;;;27.10;37.80;;;;;;4993166;28;20229;-49
2023/02/08 10:52:58;;;;;;;1.13;0.40;;;27.00;37.70;;;;;;4992795;28;20654;-48
2023/02/08 10:55:29;;;;;;;1.15;0.50;;;27.00;37.80;;;;;;4993039;28;20207;-49
2023/02/08 10:58:02;;;;;;;0.95;0.60;;;27.00;37.90;;;;;;4993004;28;20229;-52
2023/02/08 11:00:38;;;;;;;0.85;0.50;;;26.90;37.90;;;;;;4992770;28;20566;-54
2023/02/08 11:03:22;;;;;;;1.00;0.40;;;26.90;38.00;;;;;;4995249;28;20291;-50
2023/02/08 11:05:53;;;;;;;0.30;0.30;;;26.90;38.00;;;;;;4992766;28;20197;-53
2023/02/08 11:08:26;;;;;;;1.17;0.50;;;26.90;38.10;;;;;;5006953;28;20204;-50
2023/02/08 11:11:06;;;;;;;0.75;0.40;;;26.80;38.10;;;;;;5012324;28;20203;-51
2023/02/08 11:13:39;;;;;;;0.93;0.50;;;26.80;38.10;;;;;;5012571;28;20193;-48
2023/02/08 11:16:14;;;;;;;1.38;0.60;;;26.80;38.20;;;;;;5012539;28;20208;-52
2023/02/08 11:18:51;;;;;;;0.98;0.47;;;26.80;38.20;;;;;;5012937;28;20235;-51
2023/02/08 11:21:28;;;;;;;1.00;0.60;;;26.70;38.20;;;;;;5012721;28;20192;-48
2023/02/08 11:23:59;;;;;;;0.65;0.50;;;26.70;38.20;;;;;;5012033;28;20193;-49
2023/02/08 11:26:35;;;;;;;1.80;0.60;;;26.70;38.30;;;;;;5012248;28;20215;-51
2023/02/08 11:29:13;;;;;;;1.00;0.55;;;26.70;38.30;;;;;;5012030;28;20591;-48
2023/02/08 11:32:00;;;;;;;1.13;0.40;;;26.60;38.40;;;;;;5011467;28;20367;-51
2023/02/08 11:34:33;;;;;;;1.05;0.47;;;26.60;38.40;;;;;;5012358;28;20197;-50
2023/02/08 11:37:15;;;;;;;0.90;0.65;;;26.60;38.40;;;;;;5011683;28;20212;-50
2023/02/08 11:39:50;;;;;;;1.60;0.60;;;26.50;38.40;;;;;;5011319;28;20656;-52
2023/02/08 11:42:23;;;;;;;1.00;0.57;;;26.50;38.50;;;;;;5011379;28;20275;-52
2023/02/08 11:44:56;;;;;;;1.13;0.40;;;26.50;38.50;;;;;;5011525;28;20189;-51
2023/02/08 11:47:30;;;;;;;1.17;0.50;;;26.40;38.50;;;;;;5011683;28;20204;-54
2023/02/08 11:50:03;;;;;;;1.30;0.57;;;26.40;38.60;;;;;;5011365;28;20212;-52
2023/02/08 11:52:37;;;;;;;0.63;0.40;;;26.40;38.60;;;;;;5011288;28;20204;-52
2023/02/08 11:55:25;;;;;;;1.50;0.50;;;26.40;38.60;;;;;;5011480;28;20263;-52
2023/02/08 11:57:58;;;;;;;0.60;0.50;;;26.40;38.70;;;;;;5013903;28;20347;-52
2023/02/08 12:00:32;;;;;;;0.63;0.47;;;26.40;38.70;;;;;;5016438;28;20216;-52
2023/02/08 12:03:07;;;;;;;1.30;0.73;;;26.30;38.70;;;;;;5015861;28;20202;-51
2023/02/08 12:05:48;;;;;;;1.80;0.60;;;26.30;38.70;;;;;;5015935;28;20196;-53
2023/02/08 12:08:26;;;;;;;0.82;0.63;;;26.30;38.80;;;;;;5015727;28;20204;-51
2023/02/08 12:11:07;;;;;;;0.75;0.40;;;26.20;38.70;;;;;;5015945;28;20205;-50
2023/02/08 12:13:51;;;;;;;0.70;0.50;;;26.20;38.80;;;;;;5015756;28;20207;-51
2023/02/08 12:16:39;;;;;;;0.82;0.60;;;26.20;38.80;;;;;;5015722;28;20196;-48
2023/02/08 12:19:53;;;;;;;1.77;0.50;;;26.20;38.90;;;;;;5015559;28;20732;-54
2023/02/08 12:22:27;;;;;;;0.80;0.57;;;26.10;38.90;;;;;;5015668;28;20232;-52
2023/02/08 12:25:06;;;;;;;0.57;0.40;;;26.10;38.90;;;;;;5015672;28;20223;-52
2023/02/08 12:27:44;;;;;;;1.00;0.57;;;26.10;39.00;;;;;;5014981;28;20208;-51
2023/02/08 12:30:23;;;;;;;0.77;0.40;;;26.10;39.00;;;;;;5015320;28;20327;-52
2023/02/08 12:33:22;;;;;;;0.77;0.50;;;26.00;39.00;;;;;;5015753;28;20204;-52
2023/02/08 12:36:14;;;;;;;0.80;0.30;;;26.00;39.70;;;;;;5015102;28;20208;-53
2023/02/08 12:42:32;;;;;;;0.90;0.57;;;26.00;39.10;;;;;;4967406;28;20271;-52
2023/02/08 12:45:39;;;;;;;1.52;0.60;;;25.90;39.10;;;;;;4995095;28;20198;-50
2023/02/08 12:48:26;;;;;;;0.70;0.38;;;25.90;39.10;;;;;;4995270;28;20665;-52
2023/02/08 12:51:05;;;;;;;0.85;0.50;;;25.80;39.10;;;;;;4995528;28;20197;-52
2023/02/08 12:53:40;;;;;;;0.80;0.45;;;25.80;39.20;;;;;;4995711;28;20198;-54
2023/02/08 12:56:15;;;;;;;1.25;0.47;;;25.80;39.20;;;;;;4995235;28;20204;-50
2023/02/08 12:58:49;;;;;;;1.27;0.70;;;25.80;39.30;;;;;;4994852;28;20235;-52
2023/02/08 13:01:22;;;;;;;1.17;0.60;;;25.70;39.20;;;;;;4995038;28;20197;-49
2023/02/08 13:03:58;;;;;;;1.85;0.60;;;25.70;39.30;;;;;;4995068;28;20233;-51
2023/02/08 13:06:37;;;;;;;0.95;0.60;;;25.70;39.30;;;;;;4995252;28;20289;-51
2023/02/08 13:09:16;;;;;;;0.85;0.35;;;25.70;39.40;;;;;;4996518;28;20214;-50
2023/02/08 13:11:54;;;;;;;0.70;0.50;;;25.70;39.40;;;;;;4995262;28;20208;-53
2023/02/08 13:14:33;;;;;;;1.38;0.60;;;25.60;39.40;;;;;;4995056;28;20197;-47
2023/02/08 13:17:13;;;;;;;1.58;0.60;;;25.60;39.40;;;;;;4994816;28;20201;-50
2023/02/08 13:19:56;;;;;;;0.85;0.40;;;25.60;39.50;;;;;;4994798;28;20233;-49
2023/02/08 13:22:29;;;;;;;1.40;0.57;;;25.50;39.50;;;;;;4995063;28;20204;-50
2023/02/08 13:25:00;;;;;;;1.27;0.60;;;25.50;39.40;;;;;;4994957;28;20227;-49
2023/02/08 13:27:31;;;;;;;0.75;0.35;;;25.50;39.50;;;;;;4994481;28;20205;-51
2023/02/08 13:30:02;;;;;;;1.67;0.70;;;25.50;39.50;;;;;;4994367;28;20225;-51
2023/02/08 13:32:36;;;;;;;1.30;0.68;;;25.50;39.60;;;;;;4994598;28;20204;-50